• Join FlightAware (Why Join?)
  • Login
  • US Flag 
11:37PM EDT


 

Airport Tracker/Info


-or-


 

Live Flight TrackerFlight Track Log ✈ FIN666 ✈ 22-Oct-2013 ✈ EKCH / CPH - EFHK / HEL

Flight Track Log - Related Links

Times and Time Zones

All times are in EDT time to prevent confusion due to time zone crossing. See the FIN666 flight status page for this flight to view local times or setup timezone preferences in your user account.

Time Position Orientation Groundspeed Altitude Reporting Facility
EDT Latitude Longitude Course Direction KTS MPH feet Rate Location/Type
07:30AM 55.8420 13.1192 49° Northeast  Level Estimated
07:31AM 55.9164 13.2747 50° Northeast  Level Estimated
07:32AM 55.9905 13.4309 50° Northeast  Level Estimated
07:33AM 56.0644 13.5877 50° Northeast  Level Estimated
07:34AM 56.1381 13.7451 50° Northeast  Level Estimated
07:35AM 56.2116 13.9031 50° Northeast  Level Estimated
07:36AM 56.2850 14.0617 50° Northeast  Level Estimated
07:37AM 56.3581 14.2208 50° Northeast  Level Estimated
07:38AM 56.4310 14.3807 50° Northeast  Level Estimated
07:39AM 56.5037 14.5411 51° Northeast  Level Estimated
07:40AM 56.5762 14.7021 51° Northeast  Level Estimated
07:41AM 56.6485 14.8638 51° Northeast  Level Estimated
07:42AM 56.7206 15.0261 51° Northeast  Level Estimated
07:43AM 56.7924 15.1890 51° Northeast  Level Estimated
07:44AM 56.8641 15.3525 51° Northeast  Level Estimated
07:45AM 56.9355 15.5166 51° Northeast  Level Estimated
07:46AM 57.0068 15.6814 52° Northeast  Level Estimated
07:47AM 57.0778 15.8468 52° Northeast  Level Estimated
07:48AM 57.1486 16.0129 52° Northeast  Level Estimated
07:49AM 57.2191 16.1795 52° Northeast  Level Estimated
07:50AM 57.2905 16.3493 52° Northeast  Level Estimated
07:51AM 57.3616 16.5197 52° Northeast  Level Estimated
07:52AM 57.4326 16.6908 52° Northeast  Level Estimated
07:53AM 57.5032 16.8625 53° Northeast  Level Estimated
07:54AM 57.5737 17.0349 53° Northeast  Level Estimated
07:55AM 57.6439 17.2079 53° Northeast  Level Estimated
07:56AM 57.7138 17.3817 53° Northeast  Level Estimated
07:57AM 57.7836 17.5561 53° Northeast  Level Estimated
07:58AM 57.8531 17.7311 53° Northeast  Level Estimated
07:59AM 57.9223 17.9069 53° Northeast  Level Estimated
08:00AM 57.9913 18.0833 54° Northeast  Level Estimated
08:01AM 58.0601 18.2604 54° Northeast  Level Estimated
08:02AM 58.1286 18.4382 54° Northeast  Level Estimated
08:03AM 58.1968 18.6167 54° Northeast  Level Estimated
08:04AM 58.2648 18.7959 54° Northeast  Level Estimated
08:05AM 58.3326 18.9757 54° Northeast  Level Estimated
08:06AM 58.4001 19.1563 54° Northeast  Level Estimated
08:07AM 58.4674 19.3375 55° Northeast  Level Estimated
08:08AM 58.5344 19.5194 55° Northeast  Level Estimated
08:09AM 58.6011 19.7020 55° Northeast  Level Estimated
08:10AM 58.6676 19.8853 55° Northeast  Level Estimated
08:11AM 58.7338 20.0694 55° Northeast  Level Estimated
08:12AM 58.7997 20.2541 55° Northeast  Level Estimated
08:13AM 58.8654 20.4395 56° Northeast  Level Estimated
08:14AM 58.9309 20.6256 56° Northeast  Level Estimated
08:15AM 58.9960 20.8125 56° Northeast  Level Estimated
08:16AM 59.0609 21.0000 56° Northeast  Level Estimated
08:17AM 59.1255 21.1882 56° Northeast  Level Estimated
08:18AM 59.1898 21.3772 56° Northeast  Level Estimated
08:19AM 59.2539 21.5668 56° Northeast  Level Estimated
08:20AM 59.3159 21.7518 57° Northeast  Level Estimated
08:21AM 59.3776 21.9375 57° Northeast  Level Estimated
08:22AM 59.4391 22.1239 57° Northeast  Level Estimated
08:23AM 59.5003 22.3109 57° Northeast  Level Estimated
08:24AM 59.5612 22.4986 57° Northeast  Level Estimated
08:25AM 59.6219 22.6870 57° Northeast  Level Estimated
08:26AM 59.6823 22.8761 58° Northeast  Level Estimated
08:27AM 59.7424 23.0658 58° Northeast  Level Estimated
08:28AM 59.8022 23.2563 58° Northeast  Level Estimated
08:29AM 59.8618 23.4474 58° Northeast  Level Estimated
08:30AM 59.9211 23.6392 58° Northeast  Level Estimated
08:31AM 59.9801 23.8317 58° Northeast  Level Estimated
08:32AM 60.0388 24.0248 59° Northeast  Level Estimated
08:33AM 60.0973 24.2187 59° Northeast  Level Estimated
08:34AM 60.1554 24.4132 59° Northeast  Level Estimated
08:35AM 60.2133 24.6085 59° Northeast  Level Estimated
08:36AM 60.2709 24.8044 59° Northeast  Level Estimated
08:37AM 60.3172 24.9633 59° Northeast  Level Estimated
08:38AM 60.3172 24.9633 37° Northeast  Level Estimated
08:39AM 60.3172 24.9633 37° Northeast  Level Estimated
08:40AM 60.3172 24.9633 37° Northeast  Level Estimated
08:41AM 60.3172 24.9633 37° Northeast  Level Estimated
08:42AM 60.3172 24.9633 37° Northeast  Level Estimated
08:43AM 60.3172 24.9633 37° Northeast  Level Estimated
08:44AM 60.3172 24.9633 37° Northeast  Level Estimated
08:45AM 60.3172 24.9633 37° Northeast  Level Estimated
08:46AM 60.3172 24.9633 37° Northeast  Level Estimated
08:47AM 60.3172 24.9633 37° Northeast  Level Estimated